19 de maio de 2022

Tempo Código Clima Temp. Visão Nuvens Vento METAR/SPECI
20:55
V
12 °C 10 km+ 34.000 ft 260°   260° 7 kt METAR EHKD 191855Z AUTO 26007KT 9999 BKN340 12/11 Q1020 BLU
20:25
V
14 °C 10 km+ - 280°   280° 8 kt METAR EHKD 191825Z AUTO 28008KT 250V320 9999 NCD 14/11 Q1019 BLU
20:06
V
14 °C 10 km+ - 280°   280° 7 kt METAR EHKD 191806Z AUTO 28007KT 9999 NCD 14/12 Q1019 BLU
19:55
V
14 °C 10 km+ - 280°   280° 7 kt METAR EHKD 191755Z AUTO 28007KT 240V320 9999 NCD 14/12 Q1019 BLU NOSIG
19:30
V
14 °C 10 km+ 4.500 ft 280°   280° 9 kt METAR EHKD 191730Z AUTO 28009KT 250V320 9999 FEW005 OVC045 14/12 Q1019 BLU TEMPO SCT006 BKN040
19:25
I
13 °C 10 km+ 500 ft 280°   280° 9 kt METAR EHKD 191725Z AUTO 28009KT 250V320 9999 BKN005 OVC042 13/12 Q1019 YLO TEMPO SCT006 BKN040
19:16
V
14 °C 10 km+ 4.100 ft 280°   280° 10 kt METAR EHKD 191716Z AUTO 28010KT 9999 SCT006 OVC041 14/12 Q1019 YLO TEMPO SCT006 BKN040
19:08
V
14 °C 10 km+ 4.200 ft 280°   280° 10 kt METAR EHKD 191708Z AUTO 28010KT 260V330 9999 SCT006 OVC042 14/12 Q1019 YLO TEMPO SCT006 BKN040
18:55
V
14 °C 10 km+ 4.000 ft 280°   280° 10 kt METAR EHKD 191655Z AUTO 28010KT 250V320 9999 FEW006 BKN040 BKN046 14/13 Q1019 BLU TEMPO SCT006 BKN040
18:39
V
14 °C 10 km+ 3.800 ft 280°   280° 12 kt METAR EHKD 191639Z AUTO 28012KT 250V320 9999 FEW006 BKN038 BKN044 14/12 Q1018 BLU TEMPO SCT006 BKN040
18:36
V
14 °C 10 km+ 3.800 ft 280°   280° 12 kt METAR EHKD 191636Z AUTO 28012KT 250V320 9999 FEW005 BKN038 OVC042 14/13 Q1018 BLU TEMPO SCT006 SCT015
18:25
I
14 °C 10 km+ 500 ft 280°   280° 11 kt METAR EHKD 191625Z AUTO 28011KT 250V320 9999 BKN005 OVC037 14/13 Q1018 YLO TEMPO SCT006 SCT015
18:10
I
15 °C 10 km+ 500 ft 260°   260° 12 kt METAR EHKD 191610Z AUTO 26012KT 230V290 9999 BKN005 BKN006 BKN036 15/13 Q1018 YLO TEMPO SCT006 SCT015
18:06
M
15 °C 10 km+ 1.800 ft 260°   260° 11 kt METAR EHKD 191606Z AUTO 26011KT 230V290 9999 SCT005 BKN018 BKN036 15/13 Q1018 YLO TEMPO SCT006 SCT015
17:55
M
15 °C 10 km+ 2.700 ft 270°   270° 11 kt METAR EHKD 191555Z AUTO 27011KT 9999 FEW004 SCT023 BKN027 15/14 Q1017 WHT TEMPO 4000 BR SCT006 SCT015
17:54
V
15 °C 10 km+ 3.000 ft 270°   270° 10 kt METAR EHKD 191554Z AUTO 27010KT 240V300 9999 FEW005 SCT026 OVC030 15/14 Q1017 BLU TEMPO 4000 BR SCT006 SCT015
17:28
I
15 °C 10 km+ 700 ft 270°   270° 11 kt METAR EHKD 191528Z AUTO 27011KT 9999 FEW005 BKN007 OVC008 15/14 Q1017 GRN TEMPO 4000 BR SCT006 SCT015
17:25
I
15 °C 10 km+ 500 ft 270°   270° 12 kt METAR EHKD 191525Z AUTO 27012KT 240V310 9999 BKN005 BKN006 OVC007 15/14 Q1017 YLO TEMPO 4000 BR SCT006 SCT015
17:13
I
15 °C 10 km+ 700 ft 270°   270° 13 kt METAR EHKD 191513Z AUTO 27013KT 240V300 9999 SCT005 BKN007 BKN009 15/14 Q1017 YLO TEMPO 4000 BR SCT006 SCT015
16:55
I
16 °C 9 km 800 ft 270°   270° 14 kt METAR EHKD 191455Z AUTO 27014KT 240V300 9000 BR FEW006 SCT007 BKN008 16/15 Q1017 GRN TEMPO 4000 BR SCT006 SCT015
16:43
V
18 °C 10 km+ 3.700 ft 270°   270° 10 kt METAR EHKD 191443Z AUTO 27010KT 240V300 9999 FEW005 SCT006 BKN037 18/16 Q1017 YLO TEMPO 4000 BR SCT006 SCT015
16:35
V
18 °C 10 km+ - 270°   270° 9 kt METAR EHKD 191435Z AUTO 27009KT 240V310 9999 FEW005 SCT041 18/17 Q1017 BLU TEMPO 4000 SHRA SCT006 SCT015
16:31
V
19 °C 10 km+ - 270°   270° 9 kt METAR EHKD 191431Z AUTO 27009KT 250V310 9999 FEW005 SCT009 19/17 Q1017 GRN TEMPO 4000 SHRA SCT006 SCT015
16:25
I
19 °C 10 km+ 700 ft 250°   250° 7 kt METAR EHKD 191425Z AUTO 25007KT 200V290 9999 FEW005 BKN007 BKN011 19/17 Q1016 GRN TEMPO 4000 SHRA SCT006 SCT015
16:16
M
20 °C 10 km+ 1.100 ft 230°   230° 5 kt METAR EHKD 191416Z AUTO 23005KT 170V280 9999 SCT007 SCT009 BKN011 20/17 Q1016 GRN TEMPO 4000 SHRA SCT006 SCT015
16:14
V
20 °C 10 km+ 32.000 ft 230°   230° 5 kt METAR EHKD 191414Z AUTO 23005KT 170V280 9999 FEW007 SCT008 BKN320 20/17 Q1016 GRN TEMPO 4000 SHRA SCT008 SCT015
16:06
V
20 °C 10 km+ 27.000 ft 200°   200° 4 kt METAR EHKD 191406Z AUTO 20004KT 160V260 9999 FEW007 OVC270 20/18 Q1016 BLU TEMPO 4000 SHRA SCT008 SCT015
15:55
V
19 °C 10 km+ 23.000 ft 160°   160° 4 kt METAR EHKD 191355Z AUTO 16004KT 100V230 9999 FEW006 OVC230 19/17 Q1016 BLU TEMPO 4000 SHRA
15:25
V
17 °C 9 km 9.300 ft 120°   120° 6 kt METAR EHKD 191325Z AUTO 12006KT 080V150 9000 BR OVC093 17/16 Q1016 BLU TEMPO 4000 SHRA
15:11
V
16 °C 9 km 9.500 ft 110°   110° 7 kt METAR EHKD 191311Z AUTO 11007KT 080V150 9000 BR FEW015CB OVC095 16/15 Q1016 BLU TEMPO 4000 SHRA
15:07
M
16 °C 7 km 9.500 ft 110°   110° 7 kt METAR EHKD 191307Z AUTO 11007KT 080V150 7000 -DZ FEW015CB BKN095 OVC100 16/15 Q1016 WHT TEMPO 4000 SHRA
14:55
M
16 °C 5 km 9.500 ft Var   Var 2 kt METAR EHKD 191255Z AUTO VRB02KT 5000 -RA FEW001 FEW015CB BKN095 OVC103 16/15 Q1016 RERA REDZ WHT TEMPO 4000 SHRA
14:43
M
16 °C 5 km 9.400 ft 260°   260° 3 kt METAR EHKD 191243Z AUTO 26003KT 220V310 5000 -RADZ FEW015CB BKN094 OVC099 16/15 Q1017 WHT TEMPO 4000 SHRA
14:25
M
17 °C 5 km 8.100 ft 240°   240° 9 kt METAR EHKD 191225Z AUTO 24009KT 5000 -RA FEW015CB BKN081 OVC086 17/16 Q1018 RERA REDZ WHT TEMPO 4000 SHRA SCT020 SCT045CB
14:12
M
17 °C 6 km 5.500 ft 250°   250° 7 kt METAR EHKD 191212Z AUTO 25007KT 230V290 6000 -RA FEW015CB SCT050 BKN055 OVC080 17/16 Q1018 WHT TEMPO 4000 SHRA SCT020 SCT045CB
13:55
V
17 °C 9 km 7.900 ft 230°   230° 4 kt METAR EHKD 191155Z AUTO 23004KT 190V260 9000 -RA FEW015CB SCT057 OVC079 17/16 Q1018 RETSRA BLU TEMPO 4000 SHRA TSRA SCT025 SCT045CB
13:53
V
17 °C 9 km 5.500 ft 240°   240° 3 kt METAR EHKD 191153Z AUTO 24003KT 190V290 9000 BR FEW036 SCT041 BKN055 17/16 Q1018 BLU TEMPO 4000 SHRA SCT025 SCT045CB
13:25
I
16 °C 4,4 km 8.200 ft 240°   240° 10 kt METAR EHKD 191125Z AUTO 24010KT 4400 -TSRA FEW015CB SCT076 BKN082 16/15 Q1017 RERA GRN TEMPO 4000 SHRA TSRA SCT025 SCT045CB
13:11
I
16 °C 3,1 km 6.800 ft 260°   260° 14 kt METAR EHKD 191111Z AUTO 26014KT 220V290 3100 R03/P3000D TSRA SCT015CB SCT061 BKN068 16/15 Q1017 YLO TEMPO 4000 SHRA TSRA SCT025 SCT045CB
12:55
V
21 °C 10 km+ 6.600 ft 170°   170° 4 kt METAR EHKD 191055Z AUTO 17004KT 090V230 9999 -TSRA FEW015CB OVC066 21/17 Q1016 BLU TEMPO 4000 SHRA TSRA SCT025 SCT045CB
12:25
V
22 °C 10 km+ 8.400 ft 110°   110° 7 kt METAR EHKD 191025Z AUTO 11007KT 080V140 9999 FEW017CB BKN084 OVC097 22/17 Q1016 BLU TEMPO 4000 SHRA TSRA SCT025 SCT045CB
11:55
V
21 °C 10 km+ 10.000 ft 090°   090° 5 kt METAR EHKD 190955Z AUTO 09005KT 060V120 9999 OVC100 21/18 Q1015 BLU TEMPO 4000 SHRA TSRA SCT025 SCT045CB
11:25
V
20 °C 10 km+ 11.000 ft 100°   100° 6 kt METAR EHKD 190925Z AUTO 10006KT 070V150 9999 OVC110 20/17 Q1015 BLU TEMPO 4000 SHRA TSRA SCT025 SCT045CB
10:55
V
19 °C 8 km 11.000 ft 110°   110° 6 kt METAR EHKD 190855Z AUTO 11006KT 060V140 8000 BR FEW015CB OVC110 19/17 Q1016 BLU TEMPO 4000 SHRA TSRA SCT025 SCT045CB
10:36
V
18 °C 9 km 10.000 ft Var   Var 2 kt METAR EHKD 190836Z AUTO VRB02KT 9000 BR SCT015CB OVC100 18/17 Q1016 WHT TEMPO 4000 SHRA TSRA SCT025 SCT045CB
10:25
M
17 °C 6 km 10.000 ft 010°   010° 3 kt METAR EHKD 190825Z AUTO 01003KT 310V120 6000 BR FEW015CB SCT098 OVC100 17/17 Q1016 WHT TEMPO 4000 SHRA TSRA SCT025 SCT045CB
09:55
M
17 °C 5 km 8.200 ft 260°   260° 6 kt METAR EHKD 190755Z AUTO 26006KT 230V290 5000 SHRA SCT015CB SCT077 BKN082 17/16 Q1017 WHT TEMPO 4000 SHRA TSRA SCT025 SCT045CB
09:25
V
18 °C 9 km 8.500 ft Var   Var 2 kt METAR EHKD 190725Z AUTO VRB02KT 9000 BR FEW015CB SCT069 BKN085 OVC094 18/16 Q1016 BLU TEMPO 4000 SHRA TSRA SCT025 SCT045CB
08:55
V
18 °C 9 km 7.400 ft 150°   150° 4 kt METAR EHKD 190655Z AUTO 15004KT 9000 BR FEW015CB BKN074 OVC084 18/16 Q1016 BLU TEMPO 4000 SHRA TSRA SCT025 SCT045CB
08:25
V
18 °C 8 km 8.700 ft 150°   150° 4 kt METAR EHKD 190625Z AUTO 15004KT 120V200 8000 BR FEW071 SCT080 BKN087 18/16 Q1016 BLU TEMPO 4000 SHRA TSRA SCT025 SCT045CB
07:55
I
17 °C 4 km 5.900 ft 100°   100° 5 kt METAR EHKD 190555Z AUTO 10005KT 070V130 4000 RA FEW040 SCT051 BKN059 17/16 Q1016 GRN TEMPO 4000 SHRA TSRA SCT025 SCT045CB
07:25
V
17 °C 8 km 5.000 ft 150°   150° 5 kt METAR EHKD 190525Z AUTO 15005KT 120V180 8000 BR FEW046 BKN050 OVC055 17/15 Q1017 BLU TEMPO 4000 SHRA TSRA SCT025 SCT045CB
07:11
V
17 °C 8 km 4.300 ft 140°   140° 6 kt METAR EHKD 190511Z AUTO 14006KT 110V180 8000 BR BKN043 OVC048 17/15 Q1017 BLU TEMPO 4000 SHRA TSRA SCT025 SCT045CB
06:55
M
17 °C 7 km 3.200 ft 200°   200° 5 kt METAR EHKD 190455Z AUTO 20005KT 170V230 7000 -UP FEW015CB OVC032 17/15 Q1017 WHT TEMPO 4000 SHRA TSRA SCT025 SCT045CB
06:43
V
17 °C 8 km 3.100 ft 220°   220° 5 kt METAR EHKD 190443Z AUTO 22005KT 190V250 8000 BR FEW015CB OVC031 17/15 Q1017 BLU TEMPO 4000 SHRA TSRA SCT025 SCT045CB
06:31
M
17 °C 7 km 2.600 ft 220°   220° 7 kt METAR EHKD 190431Z AUTO 22007KT 190V250 7000 BR FEW015CB BKN026 OVC030 17/16 Q1017 WHT TEMPO 4000 SHRA TSRA SCT025 SCT045CB
06:25
M
17 °C 5 km 1.500 ft 210°   210° 11 kt METAR EHKD 190425Z AUTO 21011KT 180V250 5000 TS BR BKN015CB OVC020 17/16 Q1017 RERA WHT
06:16
I
18 °C 2,8 km 1.500 ft 200°   200° 12 kt METAR EHKD 190416Z AUTO 20012KT 160V250 2800 +TSRA BKN015CB BKN019 BKN022 18/16 Q1017 YLO
06:12
M
18 °C 5 km 1.500 ft 190°   190° 12 kt METAR EHKD 190412Z AUTO 19012KT 160V230 5000 TSRA BKN015CB BKN019 BKN023 18/16 Q1017 WHT
06:08
M
19 °C 7 km 3.100 ft 190°   190° 9 kt METAR EHKD 190408Z AUTO 19009KT 160V230 7000 -TSRA SCT015CB SCT022 BKN031 19/16 Q1017 WHT
05:57
V
20 °C 10 km+ 5.100 ft 190°   190° 13 kt METAR EHKD 190357Z AUTO 19013KT 150V230 9999 -TSRA SCT016CB BKN051 OVC058 20/16 Q1016 WHT
05:55
V
21 °C 10 km+ 5.300 ft Var   Var 5 16 kt METAR EHKD 190355Z AUTO VRB05G16KT 9999 -TSRA FEW018CB BKN053 OVC058 21/16 Q1016 BLU
05:25
V
17 °C 9 km 6.400 ft 090°   090° 5 kt METAR EHKD 190325Z AUTO 09005KT 060V220 9000 TS BR FEW015CB BKN064 BKN071 BKN090 17/15 Q1015 BLU
04:55
V
17 °C 9 km 6.100 ft 100°   100° 6 kt METAR EHKD 190255Z AUTO 10006KT 070V140 9000 BR FEW015CB BKN061 BKN067 BKN076 17/15 Q1016 BLU
04:25
V
17 °C 9 km 6.500 ft 090°   090° 6 kt METAR EHKD 190225Z AUTO 09006KT 9000 BR OVC065 17/15 Q1016 BLU
03:55
V
16 °C 10 km+ 22.000 ft 090°   090° 5 kt METAR EHKD 190155Z AUTO 09005KT 9999 FEW070 OVC220 16/15 Q1016 BLU
03:25
V
17 °C 10 km+ 7.300 ft 110°   110° 8 kt METAR EHKD 190125Z AUTO 11008KT 080V140 9999 OVC073 17/14 Q1016 BLU
02:55
V
17 °C 10 km+ 22.000 ft 100°   100° 7 kt METAR EHKD 190055Z AUTO 10007KT 070V140 9999 OVC220 17/14 Q1017 BLU
02:25
V
17 °C 10 km+ 22.000 ft 100°   100° 9 kt METAR EHKD 190025Z AUTO 10009KT 070V130 9999 OVC220 17/14 Q1017 BLU
01:55
V
17 °C 10 km+ 24.000 ft 090°   090° 9 kt METAR EHKD 182355Z AUTO 09009KT 060V130 9999 OVC240 17/14 Q1017 BLU
01:25
V
17 °C 10 km+ 25.000 ft 090°   090° 8 kt METAR EHKD 182325Z AUTO 09008KT 060V120 9999 BKN250 BKN300 OVC350 17/13 Q1018 BLU
00:55
V
17 °C 10 km+ 22.000 ft 080°   080° 8 kt METAR EHKD 182255Z AUTO 08008KT 9999 OVC220 17/14 Q1018 BLU
00:25
V
17 °C 10 km+ 20.000 ft 090°   090° 6 kt METAR EHKD 182225Z AUTO 09006KT 9999 OVC200 17/14 Q1019 BLU

18 de maio de 2022

Tempo Código Clima Temp. Visão Nuvens Vento METAR/SPECI
23:55
V
17 °C 10 km+ 22.000 ft 090°   090° 6 kt METAR EHKD 182155Z AUTO 09006KT 9999 OVC220 17/13 Q1019 BLU
23:25
V
17 °C 10 km+ 25.000 ft 090°   090° 6 kt METAR EHKD 182125Z AUTO 09006KT 9999 OVC250 17/13 Q1019 BLU
22:55
V
17 °C 10 km+ 24.000 ft 090°   090° 6 kt METAR EHKD 182055Z AUTO 09006KT 9999 OVC240 17/13 Q1019 BLU
22:25
V
16 °C 10 km+ 26.000 ft 080°   080° 6 kt METAR EHKD 182025Z AUTO 08006KT 9999 OVC260 16/13 Q1019 BLU
21:55
V
16 °C 10 km+ 26.000 ft 080°   080° 5 kt METAR EHKD 181955Z AUTO 08005KT 9999 OVC260 16/13 Q1019 BLU
21:25
V
16 °C 10 km+ 26.000 ft 060°   060° 5 kt METAR EHKD 181925Z AUTO 06005KT 9999 OVC260 16/13 Q1019 BLU NOSIG
20:55
V
16 °C 10 km+ 27.000 ft 040°   040° 3 kt METAR EHKD 181855Z AUTO 04003KT 9999 OVC270 16/12 Q1020 BLU NOSIG
20:25
V
17 °C 10 km+ 26.000 ft 030°   030° 2 kt METAR EHKD 181825Z AUTO 03002KT 9999 OVC260 17/12 Q1020 BLU NOSIG
19:55
V
18 °C 10 km+ 25.000 ft 050°   050° 3 kt METAR EHKD 181755Z AUTO 05003KT 030V090 9999 OVC250 18/12 Q1020 BLU NOSIG
19:25
V
18 °C 10 km+ 25.000 ft 060°   060° 5 kt METAR EHKD 181725Z AUTO 06005KT 9999 OVC250 18/12 Q1020 BLU NOSIG
18:55
V
18 °C 10 km+ 27.000 ft 060°   060° 4 kt METAR EHKD 181655Z AUTO 06004KT 010V100 9999 BKN270 OVC340 18/12 Q1020 BLU NOSIG
18:25
V
19 °C 10 km+ 27.000 ft 060°   060° 5 kt METAR EHKD 181625Z AUTO 06005KT 010V100 9999 BKN270 OVC350 19/12 Q1021 BLU NOSIG
17:55
V
20 °C 10 km+ 36.000 ft 030°   030° 4 kt METAR EHKD 181555Z AUTO 03004KT 310V080 9999 SCT280 OVC360 20/11 Q1021 BLU NOSIG
17:25
V
19 °C 10 km+ 33.000 ft 340°   340° 4 kt METAR EHKD 181525Z AUTO 34004KT 280V050 9999 OVC330 19/12 Q1021 BLU NOSIG
16:55
V
19 °C 10 km+ 33.000 ft 330°   330° 5 kt METAR EHKD 181455Z AUTO 33005KT 270V050 9999 OVC330 19/11 Q1021 BLU NOSIG
16:25
V
19 °C 10 km+ 25.000 ft 330°   330° 5 kt METAR EHKD 181425Z AUTO 33005KT 260V030 9999 OVC250 19/11 Q1021 BLU NOSIG
15:55
V
19 °C 10 km+ 29.000 ft 340°   340° 6 kt METAR EHKD 181355Z AUTO 34006KT 290V050 9999 BKN290 BKN370 19/11 Q1021 BLU NOSIG
15:25
V
20 °C 10 km+ 28.000 ft 340°   340° 6 kt METAR EHKD 181325Z AUTO 34006KT 300V030 9999 BKN280 OVC350 20/11 Q1021 BLU NOSIG
14:55
V
18 °C 10 km+ 33.000 ft 320°   320° 7 kt METAR EHKD 181255Z AUTO 32007KT 290V010 9999 SCT280 BKN330 18/11 Q1021 BLU NOSIG
14:25
V
18 °C 10 km+ 37.000 ft 310°   310° 9 kt METAR EHKD 181225Z AUTO 31009KT 280V010 9999 OVC370 18/11 Q1021 BLU NOSIG
13:55
V
18 °C 10 km+ 36.000 ft 320°   320° 8 kt METAR EHKD 181155Z AUTO 32008KT 270V010 9999 OVC360 18/11 Q1021 BLU NOSIG
13:25
V
19 °C 10 km+ 33.000 ft 320°   320° 10 kt METAR EHKD 181125Z AUTO 32010KT 280V360 9999 BKN330 19/11 Q1021 BLU NOSIG
12:55
V
19 °C 10 km+ - 320°   320° 8 kt METAR EHKD 181055Z AUTO 32008KT 280V030 9999 FEW350 19/12 Q1021 BLU NOSIG
12:25
V
18 °C 10 km+ - 320°   320° 8 kt METAR EHKD 181025Z AUTO 32008KT 280V360 9999 NCD 18/13 Q1021 BLU NOSIG
11:55
V
18 °C 10 km+ - 310°   310° 8 kt METAR EHKD 180955Z AUTO 31008KT 280V010 9999 NCD 18/13 Q1021 BLU NOSIG
11:25
V
18 °C 10 km+ - 310°   310° 9 kt METAR EHKD 180925Z AUTO 31009KT 260V360 9999 SCT380 18/14 Q1020 BLU NOSIG
10:55
V
17 °C 10 km+ - 320°   320° 9 kt METAR EHKD 180855Z AUTO 32009KT 280V360 9999 FEW097 17/13 Q1020 BLU NOSIG
10:43
V
18 °C 10 km+ 40.000 ft 320°   320° 9 kt METAR EHKD 180843Z AUTO 32009KT 280V360 9999 SCT066 BKN400 18/13 Q1020 BLU NOSIG
10:25
V
17 °C 10 km+ 38.000 ft 300°   300° 10 kt METAR EHKD 180825Z AUTO 30010KT 240V330 9999 FEW059 BKN380 17/13 Q1020 BLU NOSIG
09:55
V
17 °C 10 km+ 37.000 ft 280°   280° 9 kt METAR EHKD 180755Z AUTO 28009KT 230V310 9999 OVC370 17/13 Q1020 BLU NOSIG
09:25
V
17 °C 10 km+ 37.000 ft 250°   250° 11 kt METAR EHKD 180725Z AUTO 25011KT 220V280 9999 FEW100 OVC370 17/13 Q1020 BLU NOSIG
08:55
V
18 °C 10 km+ 36.000 ft 250°   250° 9 kt METAR EHKD 180655Z AUTO 25009KT 9999 OVC360 18/13 Q1019 BLU NOSIG
08:25
V
18 °C 10 km+ 37.000 ft 220°   220° 9 kt METAR EHKD 180625Z AUTO 22009KT 190V250 9999 BKN370 18/13 Q1019 BLU NOSIG
07:55
V
18 °C 10 km+ 33.000 ft 210°   210° 7 kt METAR EHKD 180555Z AUTO 21007KT 180V240 9999 SCT120 BKN330 OVC390 18/13 Q1019 BLU NOSIG
07:25
V
17 °C 10 km+ 11.000 ft 220°   220° 4 kt METAR EHKD 180525Z AUTO 22004KT 9999 BKN110 BKN390 17/14 Q1018 BLU NOSIG
06:55
V
16 °C 10 km+ 10.000 ft 200°   200° 7 kt METAR EHKD 180455Z AUTO 20007KT 150V250 9999 OVC100 16/14 Q1018 BLU NOSIG
06:33
V
16 °C 10 km+ 10.000 ft 180°   180° 4 kt METAR EHKD 180433Z AUTO 18004KT 160V220 9999 OVC100 16/15 Q1018 BLU NOSIG
06:25
V
16 °C 10 km+ 6.500 ft 180°   180° 3 kt METAR EHKD 180425Z AUTO 18003KT 140V210 9999 BKN065 BKN071 BKN110 16/14 Q1018 BLU
05:55
V
16 °C 10 km+ 11.000 ft 150°   150° 4 kt METAR EHKD 180355Z AUTO 15004KT 120V180 9999 FEW072 BKN110 16/14 Q1017 BLU
05:25
V
16 °C 10 km+ 12.000 ft 150°   150° 4 kt METAR EHKD 180325Z AUTO 15004KT 120V180 9999 OVC120/// 16/14 Q1017 BLU
04:55
V
16 °C 10 km+ 12.000 ft 160°   160° 5 kt METAR EHKD 180255Z AUTO 16005KT 9999 OVC120 16/14 Q1017 BLU
04:25
V
16 °C 10 km+ 15.000 ft 140°   140° 4 kt METAR EHKD 180225Z AUTO 14004KT 100V180 9999 BKN150 OVC380 16/14 Q1017 BLU
03:55
V
16 °C 10 km+ 38.000 ft 150°   150° 5 kt METAR EHKD 180155Z AUTO 15005KT 110V180 9999 OVC380 16/14 Q1018 BLU
03:25
V
16 °C 10 km+ 38.000 ft 150°   150° 6 kt METAR EHKD 180125Z AUTO 15006KT 120V180 9999 FEW015CB BKN380 16/13 Q1018 BLU
02:55
V
15 °C 10 km+ - 160°   160° 4 kt METAR EHKD 180055Z AUTO 16004KT 9999 FEW015CB SCT380 15/13 Q1018 BLU
02:25
V
17 °C 10 km+ - 140°   140° 5 kt METAR EHKD 180025Z AUTO 14005KT 100V170 9999 NCD 17/14 Q1017 BLU RMK CB INFO NOT AVBL
01:55
V
17 °C 10 km+ - 140°   140° 5 kt METAR EHKD 172355Z AUTO 14005KT 110V170 9999 NCD 17/14 Q1018 BLU
01:25
V
18 °C 10 km+ 15.000 ft 130°   130° 7 kt METAR EHKD 172325Z AUTO 13007KT 090V170 9999 OVC150 18/14 Q1017 BLU
00:55
V
18 °C 10 km+ 14.000 ft 130°   130° 7 kt METAR EHKD 172255Z AUTO 13007KT 090V160 9999 OVC140 18/14 Q1018 BLU
00:25
V
19 °C 10 km+ 13.000 ft 130°   130° 7 kt METAR EHKD 172225Z AUTO 13007KT 090V150 9999 OVC130 19/14 Q1018 BLU

17 de maio de 2022

Tempo Código Clima Temp. Visão Nuvens Vento METAR/SPECI
23:55
V
19 °C 10 km+ 14.000 ft 120°   120° 6 kt METAR EHKD 172155Z AUTO 12006KT 080V150 9999 OVC140 19/15 Q1018 BLU
23:25
V
18 °C 10 km+ 15.000 ft 080°   080° 5 kt METAR EHKD 172125Z AUTO 08005KT 9999 OVC150 18/15 Q1018 BLU
22:55
V
18 °C 10 km+ 15.000 ft 080°   080° 6 kt METAR EHKD 172055Z AUTO 08006KT 9999 FEW048 OVC150 18/15 Q1018 BLU
22:25
V
18 °C 10 km+ 16.000 ft 080°   080° 7 kt METAR EHKD 172025Z AUTO 08007KT 050V110 9999 OVC160 18/15 Q1018 BLU
21:55
V
18 °C 10 km+ 16.000 ft 070°   070° 8 kt METAR EHKD 171955Z AUTO 07008KT 9999 OVC160 18/15 Q1018 BLU
21:25
V
18 °C 10 km+ 16.000 ft 070°   070° 8 kt METAR EHKD 171925Z AUTO 07008KT 9999 OVC160 18/15 Q1018 BLU
20:55
V
19 °C 10 km+ 14.000 ft 080°   080° 7 kt METAR EHKD 171855Z AUTO 08007KT 050V110 9999 OVC140 19/15 Q1018 BLU
20:25
V
19 °C 10 km+ 15.000 ft 080°   080° 8 kt METAR EHKD 171825Z AUTO 08008KT 9999 OVC150 19/14 Q1018 BLU
20:12
V
19 °C 10 km+ 15.000 ft 080°   080° 8 kt METAR EHKD 171812Z AUTO 08008KT 9999 OVC150 19/14 Q1018 BLU
19:55
V
20 °C 10 km+ 14.000 ft 080°   080° 8 kt METAR EHKD 171755Z AUTO 08008KT 050V110 9999 OVC140 20/15 Q1018 BLU NOSIG
19:25
V
20 °C 10 km+ 15.000 ft 070°   070° 8 kt METAR EHKD 171725Z AUTO 07008KT 9999 FEW044 OVC150 20/15 Q1018 BLU NOSIG
18:55
V
20 °C 10 km+ 4.500 ft 050°   050° 6 kt METAR EHKD 171655Z AUTO 05006KT 020V090 9999 BKN045 BKN051 OVC150 20/16 Q1018 BLU NOSIG
18:25
V
22 °C 10 km+ 16.000 ft Var   Var 3 kt METAR EHKD 171625Z AUTO VRB03KT 9999 FEW051 OVC160 22/13 Q1018 BLU NOSIG
17:55
V
21 °C 10 km+ 16.000 ft 070°   070° 8 kt METAR EHKD 171555Z AUTO 07008KT 030V120 9999 OVC160 21/15 Q1018 BLU NOSIG
17:25
V
21 °C 10 km+ 16.000 ft 050°   050° 10 kt METAR EHKD 171525Z AUTO 05010KT 020V080 9999 FEW035 OVC160 21/15 Q1019 BLU NOSIG
16:55
V
20 °C 10 km+ 3.500 ft 050°   050° 9 kt METAR EHKD 171455Z AUTO 05009KT 010V080 9999 BKN035 OVC043 20/13 Q1019 BLU NOSIG
Dados mais antigos

Baixe nosso aplicativo

Fácil acesso a todas as condições meteorológicas da aviação no seu celular e no seu tablet.
Com muitos recursos não disponíveis no site, como suporte offline e uma lista pessoal de aeroportos.

Nós e terceiros acompanhamos seu comportamento na internet em nosso site com cookies. Se você continuar, nós assumimos que você concorda com nossa política de cookies. Saiba mais